Time;durP1;ratioP1;P1;durP2;ratioP2;P2;SDS_P1;SDS_P2;PMS_P1;PMS_P2;Temp;Humidity;BMP_temperature;BMP_pressure;BME280_temperature;BME280_humidity;BME280_pressure;Samples;Min_cycle;Max_cycle;Signal;HPM_P1;HPM_P2
2022/02/16 00:00:24;;;;;;;16.10;14.40;;;;;;;;;;2062202;28;20305;-60
2022/02/16 00:01:25;;;;;;;15.70;14.00;;;;;;;;;;2066046;28;20264;-60
2022/02/16 00:02:26;;;;;;;15.73;14.23;;;;;;;;;;2063870;28;20204;-61
2022/02/16 00:03:27;;;;;;;16.60;14.80;;;;;;;;;;2065372;28;20162;-61
2022/02/16 00:04:27;;;;;;;15.10;13.55;;;;;;;;;;2064305;28;20178;-60
2022/02/16 00:05:28;;;;;;;15.93;13.70;;;;;;;;;;2063065;28;20205;-60
2022/02/16 00:06:28;;;;;;;16.80;14.83;;;;;;;;;;2062980;28;20661;-61
2022/02/16 00:07:28;;;;;;;16.23;14.57;;;;;;;;;;2063372;28;20534;-60
2022/02/16 00:08:29;;;;;;;15.80;14.30;;;;;;;;;;2063079;28;20178;-59
2022/02/16 00:09:29;;;;;;;17.25;15.35;;;;;;;;;;2062667;28;20174;-61
2022/02/16 00:10:29;;;;;;;16.38;14.77;;;;;;;;;;2064782;28;20178;-61
2022/02/16 00:11:29;;;;;;;15.80;14.20;;;;;;;;;;2063180;28;20170;-61
2022/02/16 00:12:31;;;;;;;17.35;15.55;;;;;;;;;;2064146;28;20170;-61
2022/02/16 00:13:32;;;;;;;16.27;14.70;;;;;;;;;;2064911;28;20652;-60
2022/02/16 00:14:32;;;;;;;17.08;15.40;;;;;;;;;;2062792;28;20174;-61
2022/02/16 00:15:32;;;;;;;16.57;14.97;;;;;;;;;;2062365;28;20574;-61
2022/02/16 00:16:33;;;;;;;17.15;15.43;;;;;;;;;;2062604;28;20276;-58
2022/02/16 00:17:33;;;;;;;16.47;14.77;;;;;;;;;;2064142;28;20188;-62
2022/02/16 00:18:37;;;;;;;16.23;14.63;;;;;;;;;;2062275;28;20317;-61
2022/02/16 00:19:37;;;;;;;17.55;15.77;;;;;;;;;;2062257;28;20758;-62
2022/02/16 00:20:38;;;;;;;16.13;14.45;;;;;;;;;;2065282;28;20260;-61
2022/02/16 00:21:39;;;;;;;16.95;15.15;;;;;;;;;;2065587;28;20169;-57
2022/02/16 00:22:39;;;;;;;17.58;15.77;;;;;;;;;;2064444;28;20182;-60
2022/02/16 00:23:39;;;;;;;16.95;15.13;;;;;;;;;;2065191;28;20207;-62
2022/02/16 00:24:40;;;;;;;17.35;15.48;;;;;;;;;;2065536;28;20209;-61
2022/02/16 00:25:40;;;;;;;18.10;15.88;;;;;;;;;;2065730;28;20205;-61
2022/02/16 00:26:40;;;;;;;16.27;14.57;;;;;;;;;;2065696;28;20174;-61
2022/02/16 00:27:40;;;;;;;17.50;15.70;;;;;;;;;;2064216;28;20170;-61
2022/02/16 00:28:41;;;;;;;16.70;15.00;;;;;;;;;;2065300;28;20710;-61
2022/02/16 00:29:41;;;;;;;16.38;14.77;;;;;;;;;;2065247;28;20702;-59
2022/02/16 00:30:41;;;;;;;18.60;16.00;;;;;;;;;;2065311;28;20284;-60
2022/02/16 00:31:42;;;;;;;17.13;15.52;;;;;;;;;;2065774;28;20642;-62
2022/02/16 00:32:43;;;;;;;17.83;15.85;;;;;;;;;;2065904;28;20173;-60
2022/02/16 00:33:43;;;;;;;17.40;15.05;;;;;;;;;;2065880;28;20186;-60
2022/02/16 00:34:44;;;;;;;18.35;16.13;;;;;;;;;;2064788;28;20195;-60
2022/02/16 00:35:44;;;;;;;17.20;15.43;;;;;;;;;;2057423;28;20184;-60
2022/02/16 00:36:44;;;;;;;17.27;15.55;;;;;;;;;;2065355;28;20165;-61
2022/02/16 00:37:45;;;;;;;17.63;15.93;;;;;;;;;;2065540;28;20173;-60
2022/02/16 00:38:45;;;;;;;18.83;16.00;;;;;;;;;;2065061;28;20184;-61
2022/02/16 00:39:45;;;;;;;16.77;15.03;;;;;;;;;;2065966;28;20180;-60
2022/02/16 00:40:46;;;;;;;17.75;15.70;;;;;;;;;;2065555;28;20558;-62
2022/02/16 00:41:46;;;;;;;19.15;16.50;;;;;;;;;;2065260;28;20360;-60
2022/02/16 00:42:46;;;;;;;18.48;16.58;;;;;;;;;;2065206;28;20189;-60
2022/02/16 00:43:46;;;;;;;18.47;16.57;;;;;;;;;;2065784;28;20178;-62
2022/02/16 00:44:47;;;;;;;18.17;16.30;;;;;;;;;;2064706;28;20186;-61
2022/02/16 00:45:47;;;;;;;18.02;16.13;;;;;;;;;;2057013;28;20166;-58
2022/02/16 00:46:47;;;;;;;17.10;15.27;;;;;;;;;;2063767;28;20210;-61
2022/02/16 00:47:48;;;;;;;17.50;15.32;;;;;;;;;;2062490;28;20193;-61
2022/02/16 00:48:48;;;;;;;18.33;16.10;;;;;;;;;;2063524;28;20857;-60
2022/02/16 00:49:49;;;;;;;18.27;16.10;;;;;;;;;;2062768;28;20646;-60
2022/02/16 00:50:52;;;;;;;17.23;15.43;;;;;;;;;;2054110;28;20205;-60
2022/02/16 00:51:53;;;;;;;17.73;15.83;;;;;;;;;;2055458;28;20616;-61
2022/02/16 00:52:58;;;;;;;17.98;16.08;;;;;;;;;;2061758;28;20607;-61
2022/02/16 00:54:02;;;;;;;19.23;16.48;;;;;;;;;;2062936;28;20172;-58
2022/02/16 00:55:06;;;;;;;18.60;16.17;;;;;;;;;;2056122;28;20186;-61
2022/02/16 00:56:07;;;;;;;18.05;16.17;;;;;;;;;;2056519;28;20170;-59
2022/02/16 00:57:08;;;;;;;18.85;16.80;;;;;;;;;;2064622;28;20240;-63
2022/02/16 00:58:08;;;;;;;20.10;16.67;;;;;;;;;;2064417;28;20259;-57
2022/02/16 00:59:09;;;;;;;21.38;19.13;;;;;;;;;;2061719;28;20207;-58
2022/02/16 01:00:22;;;;;;;21.20;18.53;;;;;;;;;;2060837;28;20186;-61
2022/02/16 01:01:25;;;;;;;19.60;17.53;;;;;;;;;;2056073;28;20585;-58
2022/02/16 01:02:29;;;;;;;20.65;18.45;;;;;;;;;;2061378;28;20224;-60
2022/02/16 01:03:32;;;;;;;21.17;18.63;;;;;;;;;;2053243;28;20500;-61
2022/02/16 01:04:34;;;;;;;21.90;19.02;;;;;;;;;;2055103;28;20282;-61
2022/02/16 01:05:35;;;;;;;21.58;19.30;;;;;;;;;;2055238;28;20207;-61
2022/02/16 01:06:35;;;;;;;21.98;18.23;;;;;;;;;;2053858;28;20170;-59
2022/02/16 01:07:35;;;;;;;23.15;19.52;;;;;;;;;;2053299;28;20194;-59
2022/02/16 01:08:39;;;;;;;21.50;19.20;;;;;;;;;;2062255;28;20169;-61
2022/02/16 01:09:40;;;;;;;23.15;18.70;;;;;;;;;;2063816;28;20181;-60
2022/02/16 01:10:41;;;;;;;19.98;17.65;;;;;;;;;;2056039;28;20171;-60
2022/02/16 01:11:41;;;;;;;20.90;18.63;;;;;;;;;;2063816;28;20178;-61
2022/02/16 01:12:42;;;;;;;20.45;18.27;;;;;;;;;;2056337;28;20163;-58
2022/02/16 01:13:42;;;;;;;20.13;17.92;;;;;;;;;;2048164;29;20171;-61
2022/02/16 01:14:42;;;;;;;21.63;18.75;;;;;;;;;;2054634;28;20171;-62
2022/02/16 01:15:52;;;;;;;19.88;17.83;;;;;;;;;;2062169;28;20174;-60
2022/02/16 01:16:52;;;;;;;20.77;18.58;;;;;;;;;;2055573;28;20229;-61
2022/02/16 01:18:10;;;;;;;19.80;17.60;;;;;;;;;;2055955;28;20198;-61
2022/02/16 01:19:19;;;;;;;19.23;17.13;;;;;;;;;;2053290;28;20206;-62
2022/02/16 01:20:21;;;;;;;20.00;17.98;;;;;;;;;;2065278;28;20172;-59
2022/02/16 01:21:30;;;;;;;22.60;18.65;;;;;;;;;;2055715;28;20188;-60
2022/02/16 01:22:31;;;;;;;20.13;17.97;;;;;;;;;;2056723;28;20183;-61
2022/02/16 01:23:32;;;;;;;22.52;19.17;;;;;;;;;;2061897;28;20177;-60
2022/02/16 01:24:33;;;;;;;21.63;19.33;;;;;;;;;;2055273;28;20252;-57
2022/02/16 01:25:37;;;;;;;22.23;19.50;;;;;;;;;;2056605;28;20186;-60
2022/02/16 01:26:43;;;;;;;22.95;19.23;;;;;;;;;;2055790;28;20178;-58
2022/02/16 01:27:49;;;;;;;23.83;19.23;;;;;;;;;;2054985;28;20162;-60
2022/02/16 01:28:52;;;;;;;22.17;18.38;;;;;;;;;;2056386;28;20784;-59
2022/02/16 01:29:52;;;;;;;22.92;19.65;;;;;;;;;;2056143;28;20256;-55
2022/02/16 01:31:00;;;;;;;20.35;18.15;;;;;;;;;;2054890;28;20197;-60
2022/02/16 01:32:05;;;;;;;21.38;18.90;;;;;;;;;;2056751;28;20179;-60
2022/02/16 01:33:05;;;;;;;24.23;18.92;;;;;;;;;;2064181;28;20594;-59
2022/02/16 01:34:17;;;;;;;20.60;18.40;;;;;;;;;;2063673;28;20553;-61
2022/02/16 01:35:18;;;;;;;21.17;17.87;;;;;;;;;;2061839;28;20193;-59
2022/02/16 01:36:18;;;;;;;19.92;17.65;;;;;;;;;;2059531;28;20178;-61
2022/02/16 01:37:23;;;;;;;19.38;17.25;;;;;;;;;;2064340;28;20277;-59
2022/02/16 01:38:24;;;;;;;20.88;18.48;;;;;;;;;;2056413;28;20186;-58
2022/02/16 01:39:34;;;;;;;19.42;17.02;;;;;;;;;;2049192;28;20187;-61
2022/02/16 01:40:35;;;;;;;21.45;17.73;;;;;;;;;;2055826;28;20928;-61
2022/02/16 01:41:35;;;;;;;19.53;17.03;;;;;;;;;;2055464;28;20189;-62
2022/02/16 01:42:45;;;;;;;20.20;17.02;;;;;;;;;;2057427;28;20175;-60
2022/02/16 01:43:53;;;;;;;20.05;17.33;;;;;;;;;;2056115;28;20641;-60
2022/02/16 01:44:54;;;;;;;20.45;17.42;;;;;;;;;;2055234;28;20193;-60
2022/02/16 01:45:54;;;;;;;19.83;17.70;;;;;;;;;;2064537;28;20177;-58
2022/02/16 01:47:01;;;;;;;20.58;16.50;;;;;;;;;;2056382;28;20265;-57
2022/02/16 01:48:04;;;;;;;20.20;17.48;;;;;;;;;;2057141;28;20170;-59
2022/02/16 01:49:05;;;;;;;19.75;16.52;;;;;;;;;;2060047;28;20662;-62
2022/02/16 01:50:09;;;;;;;19.45;17.25;;;;;;;;;;2052162;28;20187;-60
2022/02/16 01:51:10;;;;;;;19.05;17.00;;;;;;;;;;2052909;28;20182;-63
2022/02/16 01:52:14;;;;;;;22.00;17.42;;;;;;;;;;2060347;28;20177;-59
2022/02/16 01:53:19;;;;;;;19.67;16.63;;;;;;;;;;2061930;28;20237;-58
2022/02/16 01:54:20;;;;;;;19.50;17.35;;;;;;;;;;2056394;28;20166;-60
2022/02/16 01:55:21;;;;;;;19.52;16.80;;;;;;;;;;2048364;28;20195;-62
2022/02/16 01:56:23;;;;;;;20.08;17.30;;;;;;;;;;2046129;28;20176;-60
2022/02/16 01:57:24;;;;;;;18.65;15.80;;;;;;;;;;2053693;28;20215;-60
2022/02/16 01:58:34;;;;;;;18.08;16.13;;;;;;;;;;2053958;28;20207;-61
2022/02/16 02:00:05;;;;;;;19.93;16.23;;;;;;;;;;2056139;28;20261;-60
2022/02/16 02:01:25;;;;;;;18.45;15.15;;;;;;;;;;2050131;28;20274;-61
2022/02/16 02:02:38;;;;;;;18.25;15.48;;;;;;;;;;2047567;28;20219;-61
2022/02/16 02:03:52;;;;;;;19.48;16.25;;;;;;;;;;2049915;28;20713;-58
2022/02/16 02:04:52;;;;;;;18.07;15.63;;;;;;;;;;2056049;28;20178;-61
2022/02/16 02:05:53;;;;;;;19.25;16.20;;;;;;;;;;2054968;28;20651;-60
2022/02/16 02:06:57;;;;;;;19.08;16.52;;;;;;;;;;2056686;28;20178;-62
2022/02/16 02:07:57;;;;;;;18.00;15.60;;;;;;;;;;2053416;28;20181;-61
2022/02/16 02:08:57;;;;;;;18.80;15.93;;;;;;;;;;2055754;28;20653;-58
2022/02/16 02:09:57;;;;;;;20.33;16.60;;;;;;;;;;2054429;28;20170;-61
2022/02/16 02:10:58;;;;;;;18.98;16.10;;;;;;;;;;2055597;28;20281;-61
2022/02/16 02:11:59;;;;;;;19.98;15.82;;;;;;;;;;2052974;28;20174;-60
2022/02/16 02:13:00;;;;;;;20.83;17.30;;;;;;;;;;2053827;28;20710;-62
2022/02/16 02:14:13;;;;;;;19.15;15.43;;;;;;;;;;2056727;28;20171;-61
2022/02/16 02:15:43;;;;;;;19.55;15.45;;;;;;;;;;2052523;28;20186;-62
2022/02/16 02:17:03;;;;;;;18.52;14.60;;;;;;;;;;2057396;28;20188;-59
2022/02/16 02:18:04;;;;;;;20.13;16.20;;;;;;;;;;2052900;28;20209;-61
2022/02/16 02:19:05;;;;;;;18.95;16.77;;;;;;;;;;2047028;28;20193;-60
2022/02/16 02:20:17;;;;;;;20.75;16.30;;;;;;;;;;2054756;28;20174;-61
2022/02/16 02:21:18;;;;;;;17.00;14.70;;;;;;;;;;2054946;28;20171;-60
2022/02/16 02:22:18;;;;;;;19.27;14.95;;;;;;;;;;2058581;28;20174;-61
2022/02/16 02:23:18;;;;;;;19.33;16.10;;;;;;;;;;2061015;28;20650;-59
2022/02/16 02:24:20;;;;;;;18.17;15.52;;;;;;;;;;2063553;28;20174;-55
2022/02/16 02:25:20;;;;;;;17.88;15.60;;;;;;;;;;2055109;28;20190;-61
2022/02/16 02:26:21;;;;;;;20.08;16.05;;;;;;;;;;2054166;28;20170;-61
2022/02/16 02:27:22;;;;;;;17.40;15.23;;;;;;;;;;2051585;28;20643;-61
2022/02/16 02:28:23;;;;;;;17.30;15.38;;;;;;;;;;2055269;28;20170;-61
2022/02/16 02:29:24;;;;;;;16.83;15.00;;;;;;;;;;2053838;28;20307;-61
2022/02/16 02:30:36;;;;;;;18.75;14.68;;;;;;;;;;2057666;28;20689;-61
2022/02/16 02:31:37;;;;;;;17.38;13.82;;;;;;;;;;2051456;28;20177;-61
2022/02/16 02:32:41;;;;;;;15.35;13.10;;;;;;;;;;2063065;28;20193;-57
2022/02/16 02:33:42;;;;;;;15.90;13.47;;;;;;;;;;2061361;28;20201;-59
2022/02/16 02:34:42;;;;;;;13.30;11.88;;;;;;;;;;2063572;28;20185;-60
2022/02/16 02:35:43;;;;;;;14.73;12.75;;;;;;;;;;2063248;28;20177;-62
2022/02/16 02:36:43;;;;;;;14.98;12.50;;;;;;;;;;2055761;28;20230;-61
2022/02/16 02:37:43;;;;;;;12.50;11.20;;;;;;;;;;2056118;28;20174;-60
2022/02/16 02:38:45;;;;;;;13.75;12.25;;;;;;;;;;2054030;28;20182;-60
2022/02/16 02:39:45;;;;;;;14.33;11.93;;;;;;;;;;2056133;28;20232;-61
2022/02/16 02:40:52;;;;;;;14.32;12.23;;;;;;;;;;2055542;28;20173;-59
2022/02/16 02:41:52;;;;;;;13.00;11.55;;;;;;;;;;2056251;28;20186;-58
2022/02/16 02:42:53;;;;;;;14.52;11.85;;;;;;;;;;2053297;28;20182;-60
2022/02/16 02:43:54;;;;;;;12.40;11.07;;;;;;;;;;2055009;28;20182;-60
2022/02/16 02:44:54;;;;;;;12.77;11.35;;;;;;;;;;2063414;28;20165;-61
2022/02/16 02:45:55;;;;;;;13.20;11.77;;;;;;;;;;2063968;28;20622;-60
2022/02/16 02:46:58;;;;;;;13.60;11.93;;;;;;;;;;2054571;28;20182;-61
2022/02/16 02:48:03;;;;;;;13.38;11.98;;;;;;;;;;2056531;28;20221;-61
2022/02/16 02:49:03;;;;;;;14.50;12.30;;;;;;;;;;2055433;28;20284;-61
2022/02/16 02:50:05;;;;;;;12.98;11.55;;;;;;;;;;2055864;28;20237;-58
2022/02/16 02:51:05;;;;;;;14.85;12.57;;;;;;;;;;2058267;28;20220;-61
2022/02/16 02:52:06;;;;;;;13.98;12.43;;;;;;;;;;2058386;28;20181;-61
2022/02/16 02:53:08;;;;;;;13.10;11.70;;;;;;;;;;2058515;28;20806;-60
2022/02/16 02:54:10;;;;;;;13.23;11.32;;;;;;;;;;2058716;28;20182;-60
2022/02/16 02:55:14;;;;;;;13.63;11.82;;;;;;;;;;2066201;28;20181;-60
2022/02/16 02:56:17;;;;;;;15.80;13.13;;;;;;;;;;2058422;28;20166;-60
2022/02/16 02:57:17;;;;;;;12.75;11.45;;;;;;;;;;2066355;28;20188;-60
2022/02/16 02:58:18;;;;;;;14.75;12.13;;;;;;;;;;2058405;28;20197;-62
2022/02/16 02:59:22;;;;;;;13.45;11.90;;;;;;;;;;2056233;28;20206;-61
2022/02/16 03:00:27;;;;;;;13.07;11.55;;;;;;;;;;2058691;28;20275;-61
2022/02/16 03:01:29;;;;;;;13.25;11.80;;;;;;;;;;2050007;29;20183;-61
2022/02/16 03:02:30;;;;;;;13.27;11.88;;;;;;;;;;2048389;28;20174;-60
2022/02/16 03:03:32;;;;;;;13.90;11.68;;;;;;;;;;2057708;28;20182;-61
2022/02/16 03:04:32;;;;;;;16.17;12.75;;;;;;;;;;2057668;28;20166;-61
2022/02/16 03:05:32;;;;;;;14.23;11.60;;;;;;;;;;2058434;28;20232;-61
2022/02/16 03:06:33;;;;;;;14.15;12.40;;;;;;;;;;2057948;28;20185;-60
2022/02/16 03:07:33;;;;;;;13.18;11.77;;;;;;;;;;2050404;29;20218;-60
2022/02/16 03:08:33;;;;;;;13.38;11.82;;;;;;;;;;2063707;28;20560;-61
2022/02/16 03:09:34;;;;;;;14.23;12.43;;;;;;;;;;2063942;28;20276;-60
2022/02/16 03:10:34;;;;;;;15.55;12.88;;;;;;;;;;2057320;28;20243;-61
2022/02/16 03:11:34;;;;;;;14.93;13.33;;;;;;;;;;2056056;28;20174;-61
2022/02/16 03:12:36;;;;;;;13.50;12.10;;;;;;;;;;2055525;28;20189;-58
2022/02/16 03:13:37;;;;;;;16.15;12.38;;;;;;;;;;2058029;28;20177;-60
2022/02/16 03:14:46;;;;;;;17.70;13.57;;;;;;;;;;2066502;28;20232;-60
2022/02/16 03:15:47;;;;;;;15.23;13.65;;;;;;;;;;2057236;28;20647;-61
2022/02/16 03:16:48;;;;;;;15.90;13.97;;;;;;;;;;2055069;28;20213;-62
2022/02/16 03:17:48;;;;;;;17.75;13.98;;;;;;;;;;2064456;28;20268;-58
2022/02/16 03:18:49;;;;;;;16.42;14.50;;;;;;;;;;2064176;28;20296;-61
2022/02/16 03:19:50;;;;;;;18.97;14.97;;;;;;;;;;2049089;29;20179;-60
2022/02/16 03:20:51;;;;;;;18.48;16.23;;;;;;;;;;2049545;28;20179;-60
2022/02/16 03:21:51;;;;;;;18.02;15.38;;;;;;;;;;2066050;28;20220;-60
2022/02/16 03:22:52;;;;;;;18.50;16.23;;;;;;;;;;2066853;28;20178;-60
2022/02/16 03:23:52;;;;;;;18.20;15.67;;;;;;;;;;2065411;28;20182;-58
2022/02/16 03:24:53;;;;;;;18.35;15.45;;;;;;;;;;2058068;28;20189;-60
2022/02/16 03:25:54;;;;;;;20.23;16.35;;;;;;;;;;2057699;28;20213;-60
2022/02/16 03:26:59;;;;;;;21.87;17.13;;;;;;;;;;2054664;28;20462;-60
2022/02/16 03:28:17;;;;;;;21.65;18.75;;;;;;;;;;2057597;28;20635;-60
2022/02/16 03:29:26;;;;;;;21.27;17.23;;;;;;;;;;2058669;28;20244;-61
2022/02/16 03:30:31;;;;;;;20.83;17.17;;;;;;;;;;2058993;28;20193;-60
2022/02/16 03:31:31;;;;;;;20.83;18.48;;;;;;;;;;2064193;28;20213;-59
2022/02/16 03:32:37;;;;;;;20.90;18.10;;;;;;;;;;2066425;28;20630;-61
2022/02/16 03:33:37;;;;;;;23.38;18.00;;;;;;;;;;2057997;28;20174;-58
2022/02/16 03:34:38;;;;;;;20.85;18.33;;;;;;;;;;2065428;28;20170;-61
2022/02/16 03:35:38;;;;;;;21.27;18.13;;;;;;;;;;2055261;28;20646;-61
2022/02/16 03:36:40;;;;;;;23.53;19.30;;;;;;;;;;2063063;28;20193;-61
2022/02/16 03:37:41;;;;;;;21.80;18.00;;;;;;;;;;2047908;28;20171;-61
2022/02/16 03:38:41;;;;;;;22.65;19.52;;;;;;;;;;2057162;28;20659;-59
2022/02/16 03:39:42;;;;;;;22.75;17.98;;;;;;;;;;2082832;23;20188;-60
2022/02/16 03:40:43;;;;;;;21.33;18.25;;;;;;;;;;2056419;28;20178;-60
2022/02/16 03:41:43;;;;;;;21.45;18.25;;;;;;;;;;2049672;28;20205;-62
2022/02/16 03:42:45;;;;;;;21.15;18.13;;;;;;;;;;2050770;28;20619;-62
2022/02/16 03:43:45;;;;;;;19.33;17.30;;;;;;;;;;2049863;28;20199;-61
2022/02/16 03:44:46;;;;;;;18.52;16.50;;;;;;;;;;2042257;29;20704;-61
2022/02/16 03:45:50;;;;;;;20.80;17.92;;;;;;;;;;2053590;28;20687;-61
2022/02/16 03:46:51;;;;;;;22.15;17.58;;;;;;;;;;2050616;29;20202;-60
2022/02/16 03:47:53;;;;;;;20.95;16.50;;;;;;;;;;2050426;28;20234;-61
2022/02/16 03:48:53;;;;;;;18.48;16.42;;;;;;;;;;2057448;28;20604;-60
2022/02/16 03:49:53;;;;;;;20.77;16.98;;;;;;;;;;2058302;28;20248;-62
2022/02/16 03:50:54;;;;;;;20.47;17.77;;;;;;;;;;2049934;29;20578;-60
2022/02/16 03:51:55;;;;;;;19.15;16.63;;;;;;;;;;2034827;29;20184;-60
2022/02/16 03:52:55;;;;;;;21.52;18.60;;;;;;;;;;2050819;28;20238;-60
2022/02/16 03:53:56;;;;;;;22.05;18.55;;;;;;;;;;2058077;28;20221;-59
2022/02/16 03:54:57;;;;;;;20.15;16.50;;;;;;;;;;2058485;28;20166;-60
2022/02/16 03:55:57;;;;;;;20.10;17.30;;;;;;;;;;2050668;28;20203;-60
2022/02/16 03:56:58;;;;;;;22.25;17.67;;;;;;;;;;2057968;28;20594;-59
2022/02/16 03:57:58;;;;;;;19.60;17.33;;;;;;;;;;2058417;28;20334;-60
2022/02/16 03:59:00;;;;;;;19.63;17.52;;;;;;;;;;2042747;29;20180;-59
2022/02/16 04:00:00;;;;;;;21.70;19.40;;;;;;;;;;2042837;29;20194;-60
2022/02/16 04:01:19;;;;;;;20.23;18.03;;;;;;;;;;2052778;28;20249;-60
2022/02/16 04:02:20;;;;;;;20.80;17.65;;;;;;;;;;2048673;28;20171;-60
2022/02/16 04:03:20;;;;;;;20.37;17.83;;;;;;;;;;2055103;28;20174;-59
2022/02/16 04:04:21;;;;;;;22.77;18.70;;;;;;;;;;2054806;28;20174;-60
2022/02/16 04:05:23;;;;;;;23.20;19.00;;;;;;;;;;2049208;29;20218;-62
2022/02/16 04:06:23;;;;;;;22.27;18.25;;;;;;;;;;2049401;28;20175;-60
2022/02/16 04:07:23;;;;;;;21.00;18.33;;;;;;;;;;2048932;28;20163;-60
2022/02/16 04:08:24;;;;;;;19.90;17.77;;;;;;;;;;2056232;28;20190;-60
2022/02/16 04:09:24;;;;;;;20.20;16.83;;;;;;;;;;2055717;28;20600;-62
2022/02/16 04:10:24;;;;;;;20.10;17.93;;;;;;;;;;2051555;28;20179;-60
2022/02/16 04:11:27;;;;;;;22.98;19.05;;;;;;;;;;2057742;28;20597;-61
2022/02/16 04:12:27;;;;;;;21.83;18.35;;;;;;;;;;2055895;28;20175;-61
2022/02/16 04:13:28;;;;;;;22.13;19.15;;;;;;;;;;2047226;29;20182;-61
2022/02/16 04:14:29;;;;;;;23.75;18.50;;;;;;;;;;2051315;28;20171;-61
2022/02/16 04:15:30;;;;;;;20.95;17.58;;;;;;;;;;2051110;29;20801;-62
2022/02/16 04:16:36;;;;;;;22.80;18.20;;;;;;;;;;2051456;28;20307;-61
2022/02/16 04:17:37;;;;;;;18.40;16.20;;;;;;;;;;2049298;29;20183;-59
2022/02/16 04:18:41;;;;;;;20.60;18.08;;;;;;;;;;2046635;28;20185;-58
2022/02/16 04:19:41;;;;;;;20.30;18.20;;;;;;;;;;2056516;28;20553;-59
2022/02/16 04:20:41;;;;;;;20.35;18.05;;;;;;;;;;2048337;28;20183;-59
2022/02/16 04:21:43;;;;;;;19.23;17.17;;;;;;;;;;2032808;29;20970;-60
2022/02/16 04:22:45;;;;;;;19.02;16.38;;;;;;;;;;2041038;28;20182;-61
2022/02/16 04:23:48;;;;;;;21.67;16.92;;;;;;;;;;2048657;28;20269;-60
2022/02/16 04:24:48;;;;;;;19.42;16.02;;;;;;;;;;2048948;28;20237;-59
2022/02/16 04:25:49;;;;;;;18.05;16.15;;;;;;;;;;2049024;28;20205;-61
2022/02/16 04:26:50;;;;;;;19.65;16.70;;;;;;;;;;2048854;29;20179;-61
2022/02/16 04:27:51;;;;;;;20.23;15.68;;;;;;;;;;2048957;28;20338;-61
2022/02/16 04:28:52;;;;;;;19.35;16.15;;;;;;;;;;2048755;28;20175;-60
2022/02/16 04:29:56;;;;;;;18.33;15.90;;;;;;;;;;2056936;28;20194;-61
2022/02/16 04:30:56;;;;;;;18.52;16.63;;;;;;;;;;2055587;28;20285;-60
2022/02/16 04:31:56;;;;;;;16.42;14.52;;;;;;;;;;2056026;28;20171;-61
2022/02/16 04:32:57;;;;;;;18.00;16.08;;;;;;;;;;2048385;29;20191;-61
2022/02/16 04:33:57;;;;;;;18.23;16.23;;;;;;;;;;2048190;28;20179;-59
2022/02/16 04:34:57;;;;;;;19.20;16.60;;;;;;;;;;2048052;29;20655;-60
2022/02/16 04:35:58;;;;;;;17.63;15.70;;;;;;;;;;2056360;28;20173;-61
2022/02/16 04:36:58;;;;;;;20.25;16.85;;;;;;;;;;2053913;28;20166;-61
2022/02/16 04:37:59;;;;;;;22.33;17.27;;;;;;;;;;2048511;29;20270;-61
2022/02/16 04:39:00;;;;;;;16.52;14.77;;;;;;;;;;2038573;29;20179;-61
2022/02/16 04:40:04;;;;;;;20.40;16.52;;;;;;;;;;2040813;28;20643;-60
2022/02/16 04:41:04;;;;;;;17.52;15.60;;;;;;;;;;2056222;28;20170;-61
2022/02/16 04:42:05;;;;;;;18.55;15.88;;;;;;;;;;2056432;28;20170;-61
2022/02/16 04:43:05;;;;;;;19.65;16.45;;;;;;;;;;2056244;28;20206;-62
2022/02/16 04:44:06;;;;;;;19.45;16.83;;;;;;;;;;2055474;28;20170;-60
2022/02/16 04:45:10;;;;;;;18.30;16.27;;;;;;;;;;2056774;28;20678;-60
2022/02/16 04:46:11;;;;;;;18.55;15.45;;;;;;;;;;2040754;28;20203;-60
2022/02/16 04:47:11;;;;;;;20.02;17.05;;;;;;;;;;2042181;29;20179;-60
2022/02/16 04:48:11;;;;;;;18.67;16.75;;;;;;;;;;2046590;29;20175;-61
2022/02/16 04:49:11;;;;;;;18.73;16.73;;;;;;;;;;2047820;29;20159;-62
2022/02/16 04:50:12;;;;;;;18.77;16.27;;;;;;;;;;2048872;28;20314;-60
2022/02/16 04:51:12;;;;;;;19.08;16.38;;;;;;;;;;2056333;28;20694;-62
2022/02/16 04:52:13;;;;;;;19.67;17.10;;;;;;;;;;2053595;28;20619;-60
2022/02/16 04:53:13;;;;;;;19.23;17.15;;;;;;;;;;2056679;28;20182;-60
2022/02/16 04:54:15;;;;;;;18.95;16.92;;;;;;;;;;2056330;28;20686;-61
2022/02/16 04:55:15;;;;;;;20.63;17.92;;;;;;;;;;2047711;28;20190;-60
2022/02/16 04:56:18;;;;;;;20.52;17.42;;;;;;;;;;2049325;28;20706;-64
2022/02/16 04:57:19;;;;;;;20.48;17.42;;;;;;;;;;2048273;29;20203;-61
2022/02/16 04:58:23;;;;;;;20.50;17.85;;;;;;;;;;2047137;28;20252;-60
2022/02/16 04:59:23;;;;;;;19.10;16.92;;;;;;;;;;2049296;28;20271;-59
2022/02/16 05:00:25;;;;;;;18.40;16.43;;;;;;;;;;2048960;29;20202;-60
2022/02/16 05:01:33;;;;;;;18.50;16.55;;;;;;;;;;2048945;28;20214;-59
2022/02/16 05:02:35;;;;;;;19.55;17.55;;;;;;;;;;2048865;28;20175;-59
2022/02/16 05:03:36;;;;;;;18.27;16.33;;;;;;;;;;2056847;28;20261;-61
2022/02/16 05:04:36;;;;;;;20.20;16.88;;;;;;;;;;2056740;28;20210;-60
2022/02/16 05:05:36;;;;;;;17.63;15.82;;;;;;;;;;2049576;28;20369;-61
2022/02/16 05:06:38;;;;;;;18.55;16.42;;;;;;;;;;2057241;28;20265;-62
2022/02/16 05:07:39;;;;;;;20.33;18.17;;;;;;;;;;2041532;28;20260;-61
2022/02/16 05:08:40;;;;;;;18.52;16.50;;;;;;;;;;2040890;29;20191;-62
2022/02/16 05:09:40;;;;;;;19.95;17.33;;;;;;;;;;2046345;28;20257;-60
2022/02/16 05:10:41;;;;;;;20.33;16.83;;;;;;;;;;2048962;29;20171;-60
2022/02/16 05:11:48;;;;;;;17.73;15.88;;;;;;;;;;2048188;28;20178;-59
2022/02/16 05:12:48;;;;;;;19.65;17.45;;;;;;;;;;2049221;29;20178;-59
2022/02/16 05:13:49;;;;;;;21.73;17.20;;;;;;;;;;2048644;28;20179;-60
2022/02/16 05:14:49;;;;;;;19.73;17.60;;;;;;;;;;2048402;29;20223;-58
2022/02/16 05:15:49;;;;;;;19.40;17.30;;;;;;;;;;2049062;29;20718;-60
2022/02/16 05:16:50;;;;;;;20.30;17.77;;;;;;;;;;2049100;28;20186;-58
2022/02/16 05:17:50;;;;;;;19.42;17.38;;;;;;;;;;2049038;29;20175;-59
2022/02/16 05:19:13;;;;;;;22.10;17.80;;;;;;;;;;2050457;28;20194;-61
2022/02/16 05:20:16;;;;;;;19.17;17.05;;;;;;;;;;2052108;28;20827;-61
2022/02/16 05:21:16;;;;;;;19.08;17.08;;;;;;;;;;2056811;28;20174;-60
2022/02/16 05:22:18;;;;;;;19.05;16.65;;;;;;;;;;2056882;28;20641;-58
2022/02/16 05:23:22;;;;;;;17.88;15.75;;;;;;;;;;2047011;28;20175;-61
2022/02/16 05:24:31;;;;;;;18.67;16.67;;;;;;;;;;2047834;28;21897;-61
2022/02/16 05:25:31;;;;;;;17.05;15.10;;;;;;;;;;2050612;28;20334;-56
2022/02/16 05:26:36;;;;;;;17.85;15.95;;;;;;;;;;2056855;28;20705;-60
2022/02/16 05:27:37;;;;;;;20.77;16.90;;;;;;;;;;2051304;28;20182;-62
2022/02/16 05:28:37;;;;;;;19.00;17.10;;;;;;;;;;2059792;28;20173;-62
2022/02/16 05:29:38;;;;;;;18.52;16.40;;;;;;;;;;2062330;28;20202;-61
2022/02/16 05:30:42;;;;;;;19.65;17.50;;;;;;;;;;2047788;29;20174;-60
2022/02/16 05:31:44;;;;;;;19.30;17.00;;;;;;;;;;2041311;28;20219;-61
2022/02/16 05:32:45;;;;;;;17.60;15.70;;;;;;;;;;2040020;29;20335;-60
2022/02/16 05:33:45;;;;;;;18.60;16.67;;;;;;;;;;2041987;29;20199;-61
2022/02/16 05:34:51;;;;;;;18.52;16.48;;;;;;;;;;2048062;28;20918;-61
2022/02/16 05:35:52;;;;;;;18.92;16.38;;;;;;;;;;2045878;28;20175;-60
2022/02/16 05:36:53;;;;;;;19.00;15.57;;;;;;;;;;2040704;28;20222;-60
2022/02/16 05:37:54;;;;;;;18.88;16.67;;;;;;;;;;2048131;28;20179;-66
2022/02/16 05:38:56;;;;;;;18.45;16.10;;;;;;;;;;2046232;28;20202;-60
2022/02/16 05:39:56;;;;;;;18.33;16.42;;;;;;;;;;2055620;28;20328;-61
2022/02/16 05:40:57;;;;;;;18.50;16.50;;;;;;;;;;2048990;29;20210;-60
2022/02/16 05:41:59;;;;;;;18.08;16.17;;;;;;;;;;2048114;28;20548;-58
2022/02/16 05:43:00;;;;;;;17.67;15.82;;;;;;;;;;2046664;28;20730;-60
2022/02/16 05:44:00;;;;;;;19.10;16.58;;;;;;;;;;2047428;28;20238;-60
2022/02/16 05:45:01;;;;;;;18.17;15.85;;;;;;;;;;2049704;28;20227;-61
2022/02/16 05:46:01;;;;;;;17.27;15.48;;;;;;;;;;2048472;29;20182;-60
2022/02/16 05:47:01;;;;;;;18.55;16.65;;;;;;;;;;2040083;29;20691;-59
2022/02/16 05:48:01;;;;;;;20.42;16.52;;;;;;;;;;2045970;29;20175;-60
2022/02/16 05:49:03;;;;;;;18.42;16.50;;;;;;;;;;2047945;28;20734;-60
2022/02/16 05:50:04;;;;;;;17.83;15.40;;;;;;;;;;2048170;28;20223;-59
2022/02/16 05:51:04;;;;;;;17.60;15.75;;;;;;;;;;2047974;29;20179;-60
2022/02/16 05:52:04;;;;;;;16.00;14.32;;;;;;;;;;2048464;29;20640;-59
2022/02/16 05:53:05;;;;;;;18.17;16.27;;;;;;;;;;2055430;28;20277;-61
2022/02/16 05:54:05;;;;;;;18.15;16.25;;;;;;;;;;2047603;29;20189;-61
2022/02/16 05:55:06;;;;;;;17.17;15.43;;;;;;;;;;2047772;29;20163;-61
2022/02/16 05:56:07;;;;;;;17.05;15.23;;;;;;;;;;2048465;28;20183;-61
2022/02/16 05:57:07;;;;;;;15.38;13.45;;;;;;;;;;2055506;28;20599;-60
2022/02/16 05:58:08;;;;;;;16.25;14.55;;;;;;;;;;2054207;28;20213;-61
2022/02/16 05:59:11;;;;;;;16.15;14.60;;;;;;;;;;2055886;28;20330;-61
2022/02/16 06:00:12;;;;;;;16.55;14.95;;;;;;;;;;2057864;28;20187;-61
2022/02/16 06:01:18;;;;;;;17.15;15.13;;;;;;;;;;2046254;29;20186;-59